createdAt,value
2023-08-06T00:02:28.043Z,1.30
2023-08-06T00:07:24.844Z,1.88
2023-08-06T00:12:21.569Z,1.77
2023-08-06T00:17:18.701Z,1.40
2023-08-06T00:22:15.429Z,1.50
2023-08-06T00:27:12.200Z,1.63
2023-08-06T00:32:08.931Z,1.50
2023-08-06T00:37:05.795Z,1.73
2023-08-06T00:42:02.559Z,1.63
2023-08-06T00:46:59.495Z,1.73
2023-08-06T00:51:56.432Z,1.75
2023-08-06T00:56:53.761Z,1.60
2023-08-06T01:01:52.166Z,1.38
2023-08-06T01:06:53.494Z,2.13
2023-08-06T01:12:31.868Z,1.50
2023-08-06T01:17:30.385Z,1.38
2023-08-06T01:22:27.150Z,1.60
2023-08-06T01:27:34.894Z,1.67
2023-08-06T01:32:35.436Z,1.00
2023-08-06T01:37:32.954Z,1.15
2023-08-06T01:42:31.540Z,1.52
2023-08-06T01:47:28.562Z,1.40
2023-08-06T01:52:25.308Z,1.60
2023-08-06T01:57:22.143Z,1.52
2023-08-06T02:02:18.878Z,1.88
2023-08-06T02:07:15.589Z,1.85
2023-08-06T02:12:12.354Z,2.28
2023-08-06T02:17:09.088Z,2.38
2023-08-06T02:22:06.031Z,2.00
2023-08-06T02:27:03.152Z,1.48
2023-08-06T02:31:59.959Z,1.50
2023-08-06T02:36:56.685Z,1.65
2023-08-06T02:41:53.782Z,2.00
2023-08-06T02:46:50.628Z,1.83
2023-08-06T02:51:47.402Z,2.05
2023-08-06T02:56:46.244Z,1.75
2023-08-06T03:01:43.067Z,2.13
2023-08-06T03:06:39.774Z,2.00
2023-08-06T03:11:36.528Z,1.73
2023-08-06T03:16:33.247Z,1.98
2023-08-06T03:21:30.033Z,1.95
2023-08-06T03:26:26.821Z,2.00
2023-08-06T03:31:23.629Z,2.00
2023-08-06T03:36:20.412Z,2.47
2023-08-06T03:41:17.475Z,1.80
2023-08-06T03:46:14.330Z,1.75
2023-08-06T03:51:11.220Z,1.92
2023-08-06T03:56:07.963Z,1.85
2023-08-06T04:01:05.254Z,1.80
2023-08-06T04:06:04.582Z,1.60
2023-08-06T04:11:01.378Z,1.67
2023-08-06T04:16:05.412Z,2.00
2023-08-06T04:21:03.450Z,1.90
2023-08-06T04:26:00.262Z,1.75
2023-08-06T04:30:57.092Z,1.90
2023-08-06T04:35:57.451Z,1.77
2023-08-06T04:40:54.924Z,1.60
2023-08-06T04:45:54.708Z,2.00
2023-08-06T04:50:51.863Z,2.15
2023-08-06T04:55:48.804Z,1.92
2023-08-06T05:00:45.566Z,2.03
2023-08-06T05:05:42.954Z,2.17
2023-08-06T05:10:39.695Z,1.92
2023-08-06T05:15:36.422Z,1.60
2023-08-06T05:20:37.628Z,1.85
2023-08-06T05:25:37.650Z,1.30
2023-08-06T05:30:34.373Z,1.83
2023-08-06T05:35:31.120Z,1.65
2023-08-06T05:40:27.835Z,2.08
2023-08-06T05:45:24.750Z,2.17
2023-08-06T05:50:21.486Z,1.48
2023-08-06T05:55:18.275Z,1.55
2023-08-06T06:00:15.311Z,1.73
2023-08-06T06:05:12.203Z,1.70
2023-08-06T06:10:09.433Z,1.45
2023-08-06T06:15:06.835Z,1.63
2023-08-06T06:20:05.472Z,1.50
2023-08-06T06:25:02.188Z,1.40
2023-08-06T06:29:58.988Z,1.58
2023-08-06T06:34:55.745Z,1.58
2023-08-06T06:39:52.478Z,1.70
2023-08-06T06:44:49.220Z,1.25
2023-08-06T06:49:46.371Z,1.65
2023-08-06T06:54:43.126Z,1.75
2023-08-06T06:59:40.129Z,1.75
2023-08-06T07:04:36.916Z,1.45
2023-08-06T07:09:33.663Z,1.40
2023-08-06T07:14:30.756Z,1.77
2023-08-06T07:19:27.539Z,1.33
2023-08-06T07:24:24.402Z,1.40
2023-08-06T07:29:23.169Z,1.30
2023-08-06T07:34:20.403Z,1.90
2023-08-06T07:39:18.309Z,1.63
2023-08-06T07:44:15.208Z,1.20
2023-08-06T07:49:12.597Z,1.70
2023-08-06T07:54:09.832Z,1.35
2023-08-06T07:59:06.720Z,1.80
2023-08-06T08:04:03.530Z,2.05
2023-08-06T08:09:00.324Z,1.45
2023-08-06T08:13:57.080Z,1.38
2023-08-06T08:18:53.784Z,1.30
2023-08-06T08:23:50.504Z,1.42
2023-08-06T08:28:47.219Z,1.30
2023-08-06T08:33:43.979Z,1.40
2023-08-06T08:38:40.746Z,1.40
2023-08-06T08:43:38.353Z,1.40
2023-08-06T08:48:35.193Z,1.55
2023-08-06T08:53:32.850Z,1.13
2023-08-06T08:58:29.727Z,1.58
2023-08-06T09:03:27.245Z,1.48
2023-08-06T09:08:31.650Z,1.73
2023-08-06T09:13:28.543Z,1.55
2023-08-06T09:18:31.823Z,1.30
2023-08-06T09:23:34.491Z,1.05
2023-08-06T09:28:43.476Z,1.23
2023-08-06T09:33:40.322Z,1.50
2023-08-06T09:38:41.759Z,1.33
2023-08-06T09:43:45.043Z,1.20
2023-08-06T09:48:42.608Z,1.45
2023-08-06T09:53:41.690Z,1.30
2023-08-06T09:58:39.507Z,1.58
2023-08-06T10:03:37.898Z,1.67
2023-08-06T10:08:34.689Z,1.00
2023-08-06T10:13:34.364Z,1.25
2023-08-06T10:18:31.923Z,1.10
2023-08-06T10:23:36.712Z,1.13
2023-08-06T10:28:40.097Z,1.60
2023-08-06T10:33:45.728Z,1.10
2023-08-06T10:38:50.282Z,1.33
2023-08-06T10:43:48.784Z,1.33
2023-08-06T10:48:47.448Z,1.00
2023-08-06T10:53:49.472Z,1.02
2023-08-06T10:58:48.075Z,0.95
2023-08-06T11:03:47.336Z,1.02
2023-08-06T11:08:49.928Z,0.82
2023-08-06T11:13:48.447Z,0.90
2023-08-06T11:18:45.900Z,1.08
2023-08-06T11:23:42.977Z,1.15
2023-08-06T11:28:39.743Z,0.70
2023-08-06T11:33:36.473Z,0.82
2023-08-06T11:38:33.781Z,1.10
2023-08-06T11:43:32.358Z,0.68
2023-08-06T11:48:29.089Z,0.90
2023-08-06T11:53:29.491Z,2.05
2023-08-06T11:58:26.232Z,2.53
2023-08-06T12:03:28.747Z,1.27
2023-08-06T12:08:29.365Z,1.10
2023-08-06T12:13:26.331Z,0.88
2023-08-06T12:18:23.664Z,1.00
2023-08-06T12:23:20.466Z,0.85
2023-08-06T12:28:17.314Z,0.95
2023-08-06T12:33:14.057Z,1.10
2023-08-06T12:38:10.960Z,0.60
2023-08-06T12:43:07.848Z,1.13
2023-08-06T12:48:04.966Z,0.85
2023-08-06T12:53:02.060Z,0.90
2023-08-06T12:57:59.358Z,1.00
2023-08-06T13:02:56.870Z,0.95
2023-08-06T13:07:53.756Z,0.88
2023-08-06T13:12:50.551Z,1.20
2023-08-06T13:17:47.361Z,0.82
2023-08-06T13:22:46.431Z,0.70
2023-08-06T13:27:45.184Z,0.90
2023-08-06T13:32:41.978Z,1.48
2023-08-06T13:37:39.318Z,0.90
2023-08-06T13:42:36.061Z,1.15
2023-08-06T13:47:33.067Z,1.00
2023-08-06T13:52:29.996Z,1.08
2023-08-06T13:57:26.770Z,0.80
2023-08-06T14:02:24.574Z,1.52
2023-08-06T14:07:21.420Z,0.90
2023-08-06T14:12:18.212Z,0.70
2023-08-06T14:17:14.969Z,0.98
2023-08-06T14:22:11.713Z,0.90
2023-08-06T14:27:08.820Z,0.60
2023-08-06T14:32:06.104Z,0.90
2023-08-06T14:37:02.967Z,0.52
2023-08-06T14:41:59.691Z,0.77
2023-08-06T14:46:56.669Z,0.50
2023-08-06T14:51:53.676Z,0.73
2023-08-06T14:56:50.425Z,0.70
2023-08-06T15:01:47.199Z,0.77
2023-08-06T15:06:43.926Z,0.68
2023-08-06T15:11:40.861Z,0.70
2023-08-06T15:16:37.679Z,0.75
2023-08-06T15:21:35.234Z,0.80
2023-08-06T15:26:31.993Z,0.65
2023-08-06T15:31:38.467Z,0.40
2023-08-06T15:36:35.479Z,0.60
2023-08-06T15:41:32.358Z,0.82
2023-08-06T15:46:29.149Z,0.50
2023-08-06T15:51:25.930Z,0.50
2023-08-06T15:56:22.706Z,0.43
2023-08-06T16:01:19.470Z,0.80
2023-08-06T16:06:19.055Z,0.80
2023-08-06T16:11:15.825Z,0.80
2023-08-06T16:16:12.723Z,0.90
2023-08-06T16:21:09.508Z,0.70
2023-08-06T16:26:06.258Z,1.15
2023-08-06T16:31:03.324Z,1.00
2023-08-06T16:36:00.079Z,2.72
2023-08-06T16:40:57.651Z,1.60
2023-08-06T16:45:57.512Z,2.15
2023-08-06T16:51:00.864Z,1.10
2023-08-06T16:55:58.779Z,1.35
2023-08-06T17:00:57.326Z,0.68
2023-08-06T17:05:54.121Z,1.05
2023-08-06T17:10:50.853Z,2.00
2023-08-06T17:15:48.141Z,1.05
2023-08-06T17:20:46.054Z,1.30
2023-08-06T17:25:44.429Z,1.00
2023-08-06T17:30:42.379Z,0.90
2023-08-06T17:35:44.131Z,1.00
2023-08-06T17:40:40.983Z,1.00
2023-08-06T17:45:37.690Z,0.57
2023-08-06T17:50:34.470Z,1.17
2023-08-06T17:55:31.899Z,0.52
2023-08-06T18:00:28.720Z,0.30
2023-08-06T18:05:26.949Z,0.40
2023-08-06T18:10:23.904Z,0.60
2023-08-06T18:15:20.840Z,0.55
2023-08-06T18:20:17.580Z,0.30
2023-08-06T18:25:14.380Z,0.60
2023-08-06T18:30:11.569Z,0.63
2023-08-06T18:35:09.362Z,0.47
2023-08-06T18:40:08.222Z,0.80
2023-08-06T18:45:05.643Z,0.98
2023-08-06T18:50:02.552Z,1.52
2023-08-06T18:54:59.342Z,2.05
2023-08-06T18:59:56.606Z,1.70
2023-08-06T19:04:55.785Z,1.95
2023-08-06T19:09:52.592Z,2.63
2023-08-06T19:14:49.437Z,2.30
2023-08-06T19:19:46.332Z,1.80
2023-08-06T19:24:43.942Z,1.30
2023-08-06T19:29:40.718Z,1.42
2023-08-06T19:34:37.513Z,1.48
2023-08-06T19:39:34.271Z,2.15
2023-08-06T19:44:31.080Z,1.95
2023-08-06T19:49:27.818Z,2.05
2023-08-06T19:54:24.590Z,2.08
2023-08-06T19:59:21.456Z,3.00
2023-08-06T20:04:18.910Z,2.67
2023-08-06T20:09:16.789Z,1.50
2023-08-06T20:14:13.633Z,2.33
2023-08-06T20:19:10.396Z,2.00
2023-08-06T20:24:07.184Z,1.50
2023-08-06T20:29:04.832Z,1.98
2023-08-06T20:34:01.638Z,2.00
2023-08-06T20:38:58.432Z,2.03
2023-08-06T20:43:55.163Z,2.72
2023-08-06T20:48:51.969Z,2.28
2023-08-06T20:53:48.878Z,2.90
2023-08-06T20:58:45.678Z,1.80
2023-08-06T21:03:42.449Z,1.13
2023-08-06T21:08:39.209Z,1.20
2023-08-06T21:13:36.916Z,0.90
2023-08-06T21:18:35.224Z,1.30
2023-08-06T21:23:32.455Z,1.42
2023-08-06T21:28:30.417Z,1.17
2023-08-06T21:33:31.632Z,1.70
2023-08-06T21:38:29.615Z,1.15
2023-08-06T21:43:26.407Z,1.00
2023-08-06T21:48:25.277Z,1.20
2023-08-06T21:53:22.447Z,1.10
2023-08-06T21:58:19.180Z,0.88
2023-08-06T22:03:15.911Z,1.10
2023-08-06T22:08:12.691Z,1.17
2023-08-06T22:13:09.517Z,0.95
2023-08-06T22:18:07.666Z,0.90
2023-08-06T22:23:05.157Z,1.05
2023-08-06T22:28:01.895Z,1.27
2023-08-06T22:32:59.708Z,1.63
2023-08-06T22:37:56.552Z,1.30
2023-08-06T22:42:53.279Z,0.98
2023-08-06T22:47:50.109Z,1.40
2023-08-06T22:52:47.009Z,1.42
2023-08-06T22:57:43.798Z,1.35
2023-08-06T23:02:44.325Z,1.35
2023-08-06T23:07:45.752Z,1.30
2023-08-06T23:12:42.494Z,1.15
2023-08-06T23:17:40.246Z,0.82
2023-08-06T23:22:37.104Z,0.75
2023-08-06T23:27:33.972Z,0.70
2023-08-06T23:32:30.823Z,0.70
2023-08-06T23:37:27.603Z,0.50
2023-08-06T23:42:24.491Z,0.68
2023-08-06T23:47:21.277Z,0.80
2023-08-06T23:52:18.037Z,0.93
2023-08-06T23:57:14.884Z,0.73
